Time;durP1;ratioP1;P1;durP2;ratioP2;P2;SDS_P1;SDS_P2;PMS_P1;PMS_P2;Temp;Humidity;BMP_temperature;BMP_pressure;BME280_temperature;BME280_humidity;BME280_pressure;Samples;Min_cycle;Max_cycle;Signal;HPM_P1;HPM_P2
2023/05/13 00:01:49;;;;;;;;;13.75;12.00;21.10;39.00;;;;;;111693;1236;45952;-60
2023/05/13 00:04:16;;;;;;;;;13.00;11.00;21.00;39.00;;;;;;111690;1235;56263;-61
2023/05/13 00:06:43;;;;;;;;;11.00;10.00;21.00;39.00;;;;;;111670;1235;54638;-61
2023/05/13 00:09:10;;;;;;;;;17.00;13.00;21.00;39.10;;;;;;111664;1235;49672;-60
2023/05/13 00:11:38;;;;;;;;;14.25;12.75;21.00;39.00;;;;;;111671;1237;49145;-60
2023/05/13 00:14:08;;;;;;;;;13.00;11.25;21.00;39.10;;;;;;111638;1239;45646;-60
2023/05/13 00:16:35;;;;;;;;;13.67;11.00;21.00;39.10;;;;;;111926;1237;56386;-60
2023/05/13 00:19:02;;;;;;;;;11.75;10.75;21.00;39.10;;;;;;111626;1236;53997;-62
2023/05/13 00:21:29;;;;;;;;;15.25;12.00;21.00;39.10;;;;;;111474;1237;50583;-60
2023/05/13 00:23:56;;;;;;;;;14.25;11.00;21.00;39.10;;;;;;111615;1240;48994;-61
2023/05/13 00:26:23;;;;;;;;;11.75;10.50;21.00;39.10;;;;;;112070;1235;45475;-60
2023/05/13 00:28:49;;;;;;;;;14.25;11.00;21.00;39.10;;;;;;111668;1240;55341;-61
2023/05/13 00:31:16;;;;;;;;;13.25;10.50;21.00;39.30;;;;;;111649;1237;54431;-62
2023/05/13 00:33:43;;;;;;;;;12.67;11.00;21.00;39.10;;;;;;111676;1237;48975;-60
2023/05/13 00:36:11;;;;;;;;;13.00;12.00;21.00;39.20;;;;;;111676;1240;49359;-62
2023/05/13 00:38:38;;;;;;;;;12.75;10.75;20.90;39.00;;;;;;111669;1241;45955;-61
2023/05/13 00:41:05;;;;;;;;;13.25;12.00;20.90;39.00;;;;;;111665;1235;55304;-61
2023/05/13 00:43:32;;;;;;;;;15.50;12.75;20.90;39.10;;;;;;111672;1235;54516;-61
2023/05/13 00:45:59;;;;;;;;;12.00;11.00;20.90;39.10;;;;;;111577;1235;49931;-63
2023/05/13 00:48:26;;;;;;;;;13.00;12.00;20.90;39.10;;;;;;111685;1241;49545;-64
2023/05/13 00:50:53;;;;;;;;;11.50;10.00;20.90;39.40;;;;;;111728;1241;45924;-61
2023/05/13 00:53:21;;;;;;;;;13.50;12.00;20.90;39.10;;;;;;111486;1241;56495;-60
2023/05/13 00:55:48;;;;;;;;;13.00;11.75;20.90;39.20;;;;;;111622;1238;54647;-61
2023/05/13 00:58:16;;;;;;;;;15.00;13.25;20.90;39.20;;;;;;111557;1239;49388;-61
2023/05/13 01:01:12;;;;;;;;;14.75;13.00;20.90;39.10;;;;;;111653;1238;49726;-63
2023/05/13 01:03:45;;;;;;;;;14.75;13.00;20.90;39.10;;;;;;111543;1240;45832;-59
2023/05/13 01:06:17;;;;;;;;;13.50;11.50;20.90;39.40;;;;;;111725;1235;55408;-59
2023/05/13 01:09:02;;;;;;;;;14.00;12.00;20.90;39.20;;;;;;111674;1235;54127;-61
2023/05/13 01:11:36;;;;;;;;;15.25;12.00;20.90;39.20;;;;;;111619;1237;49995;-62
2023/05/13 01:14:17;;;;;;;;;13.00;11.00;20.90;39.10;;;;;;111698;1235;50224;-59
2023/05/13 01:16:44;;;;;;;;;12.75;11.50;20.90;39.20;;;;;;111477;1242;45103;-60
2023/05/13 01:19:25;;;;;;;;;12.00;11.00;20.90;39.10;;;;;;111666;1239;56539;-61
2023/05/13 01:21:53;;;;;;;;;13.00;11.00;20.80;39.10;;;;;;111531;1241;54057;-60
2023/05/13 01:24:20;;;;;;;;;14.00;11.75;20.80;39.30;;;;;;111668;1241;49173;-60
2023/05/13 01:26:48;;;;;;;;;11.75;10.25;20.80;39.20;;;;;;111626;1237;49244;-58
2023/05/13 01:29:15;;;;;;;;;16.00;12.00;20.80;39.20;;;;;;111471;1237;46044;-59
2023/05/13 01:31:42;;;;;;;;;13.00;11.50;20.80;39.40;;;;;;111505;1237;55724;-60
2023/05/13 01:34:10;;;;;;;;;13.25;11.75;20.80;39.20;;;;;;111610;1237;53648;-62
2023/05/13 01:36:38;;;;;;;;;13.00;11.75;20.80;39.40;;;;;;111577;1241;49789;-58
2023/05/13 01:39:06;;;;;;;;;12.00;11.00;20.80;39.40;;;;;;111665;1236;49034;-59
2023/05/13 01:41:33;;;;;;;;;11.67;10.67;20.80;39.20;;;;;;111667;1237;46274;-62
2023/05/13 01:44:00;;;;;;;;;12.00;11.00;20.80;39.30;;;;;;111639;1240;55576;-65
2023/05/13 01:46:27;;;;;;;;;14.67;11.00;20.70;39.40;;;;;;111623;1235;55255;-59
2023/05/13 01:48:54;;;;;;;;;13.00;11.00;20.70;39.20;;;;;;111682;1240;49144;-59
2023/05/13 01:51:21;;;;;;;;;14.00;10.50;20.70;39.20;;;;;;111670;1236;49852;-59
2023/05/13 01:53:48;;;;;;;;;13.00;12.00;20.70;39.20;;;;;;111672;1235;46298;-60
2023/05/13 01:56:15;;;;;;;;;13.50;12.25;20.70;39.30;;;;;;111695;1235;55425;-59
2023/05/13 01:58:41;;;;;;;;;11.25;10.00;20.70;39.50;;;;;;111625;1240;53963;-60
2023/05/13 02:01:08;;;;;;;;;12.00;11.00;20.70;39.50;;;;;;111607;1240;51126;-58
2023/05/13 02:03:36;;;;;;;;;11.75;10.50;20.70;39.30;;;;;;111700;1235;49642;-60
2023/05/13 02:06:03;;;;;;;;;13.00;11.00;20.70;39.30;;;;;;111662;1241;46030;-59
2023/05/13 02:08:30;;;;;;;;;13.00;12.00;20.70;39.30;;;;;;111621;1235;55891;-59
2023/05/13 02:10:58;;;;;;;;;11.00;10.00;20.70;39.30;;;;;;111703;1238;53909;-60
2023/05/13 02:13:25;;;;;;;;;12.00;10.00;20.70;39.60;;;;;;111675;1237;50268;-59
2023/05/13 02:15:53;;;;;;;;;13.00;11.50;20.70;39.40;;;;;;111608;1236;49432;-60
2023/05/13 02:18:21;;;;;;;;;15.00;13.50;20.70;39.90;;;;;;111666;1237;46517;-61
2023/05/13 02:20:48;;;;;;;;;14.00;11.33;20.70;39.40;;;;;;111697;1235;55484;-61
2023/05/13 02:23:16;;;;;;;;;12.00;10.50;20.60;39.30;;;;;;111738;1235;53934;-60
2023/05/13 02:25:43;;;;;;;;;13.75;11.75;20.70;39.40;;;;;;111688;1235;49357;-60
2023/05/13 02:28:10;;;;;;;;;13.25;12.00;20.60;39.40;;;;;;111690;1238;50350;-60
2023/05/13 02:30:37;;;;;;;;;12.67;11.00;20.60;39.40;;;;;;111700;1238;46434;-59
2023/05/13 02:33:05;;;;;;;;;12.67;11.33;20.60;39.40;;;;;;111694;1235;55632;-59
2023/05/13 02:35:32;;;;;;;;;13.00;12.00;20.60;39.60;;;;;;111703;1235;54125;-61
2023/05/13 02:37:59;;;;;;;;;12.00;10.67;20.60;39.60;;;;;;111664;1240;50009;-60
2023/05/13 02:40:26;;;;;;;;;11.00;10.00;20.60;39.40;;;;;;111665;1240;49304;-59
2023/05/13 02:42:53;;;;;;;;;12.33;11.00;20.60;39.20;;;;;;111667;1240;45620;-59
2023/05/13 02:45:20;;;;;;;;;12.00;11.00;20.60;39.70;;;;;;111731;1235;55128;-59
2023/05/13 02:47:47;;;;;;;;;11.75;10.75;20.60;39.50;;;;;;111688;1237;54199;-61
2023/05/13 02:50:14;;;;;;;;;12.50;11.00;20.60;39.50;;;;;;111698;1241;49419;-58
2023/05/13 02:52:41;;;;;;;;;13.00;12.00;20.60;39.70;;;;;;111665;1235;49613;-58
2023/05/13 02:55:08;;;;;;;;;11.00;9.25;20.60;39.50;;;;;;111701;1235;45669;-63
2023/05/13 02:57:36;;;;;;;;;14.75;13.50;20.60;39.60;;;;;;111673;1235;56053;-63
2023/05/13 03:00:04;;;;;;;;;17.00;14.00;20.60;43.40;;;;;;111716;1240;53970;-60
2023/05/13 03:02:33;;;;;;;;;17.00;16.00;20.70;44.30;;;;;;111678;1235;49770;-60
2023/05/13 03:05:00;;;;;;;;;15.67;14.33;20.70;44.40;;;;;;111468;1238;49721;-61
2023/05/13 03:07:27;;;;;;;;;15.25;14.00;20.80;44.30;;;;;;111682;1235;45240;-61
2023/05/13 03:09:54;;;;;;;;;15.50;14.25;20.90;44.30;;;;;;111680;1237;55784;-61
2023/05/13 03:12:21;;;;;;;;;15.75;14.00;21.00;44.30;;;;;;111714;1239;55339;-61
2023/05/13 03:14:48;;;;;;;;;16.00;15.00;21.10;44.20;;;;;;111700;1239;50341;-61
2023/05/13 03:17:15;;;;;;;;;14.75;12.75;21.20;44.20;;;;;;111606;1238;49020;-63
2023/05/13 03:19:42;;;;;;;;;19.67;16.00;21.30;44.30;;;;;;111661;1240;45212;-60
2023/05/13 03:22:09;;;;;;;;;16.75;15.25;21.40;44.30;;;;;;111679;1237;55759;-60
2023/05/13 03:24:36;;;;;;;;;18.50;16.00;21.40;44.20;;;;;;111599;1241;53550;-61
2023/05/13 03:27:04;;;;;;;;;15.00;13.00;21.50;44.20;;;;;;111692;1235;48927;-62
2023/05/13 03:29:31;;;;;;;;;17.50;14.50;21.50;44.10;;;;;;111686;1240;49840;-61
2023/05/13 03:31:57;;;;;;;;;17.00;14.00;21.60;44.10;;;;;;111678;1235;45259;-61
2023/05/13 03:34:24;;;;;;;;;14.75;13.75;21.70;44.20;;;;;;111704;1238;56171;-61
2023/05/13 03:36:51;;;;;;;;;16.25;12.75;21.70;44.10;;;;;;111590;1235;54432;-61
2023/05/13 03:39:18;;;;;;;;;18.00;15.00;21.70;44.00;;;;;;111687;1235;50397;-62
2023/05/13 03:41:45;;;;;;;;;15.25;13.75;21.80;44.00;;;;;;111671;1235;49636;-62
2023/05/13 03:44:12;;;;;;;;;17.25;14.50;21.80;43.90;;;;;;111643;1240;45527;-62
2023/05/13 03:46:39;;;;;;;;;16.75;15.00;21.80;43.80;;;;;;111663;1237;54959;-62
2023/05/13 03:49:06;;;;;;;;;14.25;13.00;21.90;43.90;;;;;;111692;1235;53743;-62
2023/05/13 03:51:33;;;;;;;;;15.75;14.00;21.90;43.60;;;;;;111633;1240;49159;-61
2023/05/13 03:54:01;;;;;;;;;16.75;13.50;21.90;43.50;;;;;;111680;1237;49078;-61
2023/05/13 03:56:29;;;;;;;;;15.00;14.00;21.90;43.60;;;;;;111691;1240;45573;-62
2023/05/13 03:58:56;;;;;;;;;16.67;15.67;22.00;43.60;;;;;;111712;1238;55421;-62
2023/05/13 04:01:23;;;;;;;;;14.00;12.67;22.00;43.20;;;;;;111668;1236;54550;-60
2023/05/13 04:03:50;;;;;;;;;14.00;12.00;22.00;43.10;;;;;;111693;1240;49012;-62
2023/05/13 04:06:17;;;;;;;;;14.00;13.00;22.00;43.30;;;;;;111668;1240;50598;-61
2023/05/13 04:08:45;;;;;;;;;12.33;11.00;22.00;43.00;;;;;;111708;1240;45773;-60
2023/05/13 04:11:12;;;;;;;;;16.00;14.00;22.00;42.90;;;;;;111673;1235;55466;-61
2023/05/13 04:13:39;;;;;;;;;15.00;13.00;22.10;42.90;;;;;;111697;1235;53379;-60
2023/05/13 04:16:06;;;;;;;;;16.75;15.50;22.10;43.10;;;;;;111712;1240;49882;-60
2023/05/13 04:18:33;;;;;;;;;14.75;13.25;22.10;42.80;;;;;;111648;1235;49810;-61
2023/05/13 04:21:07;;;;;;;;;15.25;12.00;22.10;42.80;;;;;;111671;1239;46107;-61
2023/05/13 04:23:35;;;;;;;;;14.75;13.75;22.10;42.70;;;;;;111573;1243;55793;-60
2023/05/13 04:26:02;;;;;;;;;14.00;12.00;22.20;42.90;;;;;;111400;1237;53446;-61
2023/05/13 04:28:29;;;;;;;;;14.00;12.75;22.20;42.80;;;;;;111664;1237;49574;-61
2023/05/13 04:30:56;;;;;;;;;15.00;14.00;22.20;42.80;;;;;;111683;1237;49401;-61
2023/05/13 04:33:23;;;;;;;;;14.75;13.00;22.20;43.10;;;;;;111722;1237;45672;-61
2023/05/13 04:35:50;;;;;;;;;19.67;16.00;22.20;42.90;;;;;;111494;1235;56576;-61
2023/05/13 04:38:17;;;;;;;;;15.00;13.75;22.20;42.90;;;;;;111650;1238;53371;-61
2023/05/13 04:40:44;;;;;;;;;13.75;12.75;22.20;43.00;;;;;;111694;1235;49670;-60
2023/05/13 04:43:11;;;;;;;;;17.00;15.75;22.20;43.30;;;;;;111663;1236;49217;-59
2023/05/13 04:45:38;;;;;;;;;18.33;15.67;22.20;43.20;;;;;;111683;1240;45195;-64
2023/05/13 04:48:06;;;;;;;;;19.00;16.75;22.20;43.30;;;;;;111651;1240;55427;-61
2023/05/13 04:50:32;;;;;;;;;22.00;17.00;22.20;43.50;;;;;;111604;1241;54012;-60
2023/05/13 04:52:59;;;;;;;;;18.00;15.00;22.20;43.80;;;;;;111652;1240;49673;-59
2023/05/13 04:55:26;;;;;;;;;19.25;16.25;22.20;43.40;;;;;;111469;1237;49706;-60
2023/05/13 04:57:53;;;;;;;;;15.25;14.25;22.20;43.60;;;;;;111441;1238;45463;-60
2023/05/13 05:00:20;;;;;;;;;20.75;14.25;22.20;43.40;;;;;;111682;1239;55146;-60
2023/05/13 05:02:47;;;;;;;;;16.50;14.25;22.20;43.40;;;;;;111714;1239;54012;-60
2023/05/13 05:05:14;;;;;;;;;15.00;14.25;22.20;43.40;;;;;;111679;1241;49767;-60
2023/05/13 05:07:41;;;;;;;;;15.00;14.00;22.20;43.50;;;;;;111679;1239;49369;-60
2023/05/13 05:10:08;;;;;;;;;30.25;23.75;22.20;44.40;;;;;;111671;1241;46006;-61
2023/05/13 05:12:36;;;;;;;;;35.75;26.75;22.30;47.30;;;;;;111643;1240;56003;-61
2023/05/13 05:15:05;;;;;;;;;51.50;35.25;22.30;48.50;;;;;;111668;1235;54442;-60
2023/05/13 05:17:32;;;;;;;;;55.33;38.67;22.30;47.40;;;;;;111619;1235;50283;-63
2023/05/13 05:19:59;;;;;;;;;46.00;35.00;22.40;47.60;;;;;;111560;1241;48991;-61
2023/05/13 05:22:26;;;;;;;;;53.00;33.00;22.40;46.60;;;;;;111688;1235;45934;-62
2023/05/13 05:24:53;;;;;;;;;48.67;30.67;22.40;46.20;;;;;;111464;1238;55905;-61
2023/05/13 05:27:20;;;;;;;;;49.50;32.75;22.50;46.10;;;;;;111630;1237;53592;-61
2023/05/13 05:29:47;;;;;;;;;46.33;34.00;22.50;45.70;;;;;;111522;1240;49575;-61
2023/05/13 05:32:14;;;;;;;;;42.00;34.00;22.60;45.50;;;;;;111652;1240;48807;-61
2023/05/13 05:34:41;;;;;;;;;38.75;31.50;22.50;45.00;;;;;;111494;1235;46670;-61
2023/05/13 05:37:08;;;;;;;;;40.00;29.25;22.60;44.80;;;;;;111653;1241;56561;-61
2023/05/13 05:39:35;;;;;;;;;33.75;27.00;22.60;44.60;;;;;;111691;1240;53883;-62
2023/05/13 05:42:02;;;;;;;;;36.33;25.67;22.60;44.50;;;;;;111666;1235;49816;-61
2023/05/13 05:44:29;;;;;;;;;43.00;29.50;22.60;44.40;;;;;;111670;1239;49794;-62
2023/05/13 05:46:55;;;;;;;;;39.50;25.75;22.60;44.30;;;;;;111700;1235;46289;-62
2023/05/13 05:49:23;;;;;;;;;28.75;22.75;22.60;44.20;;;;;;111722;1238;55232;-63
2023/05/13 05:51:49;;;;;;;;;30.00;23.75;22.60;44.10;;;;;;111673;1241;54917;-62
2023/05/13 05:54:16;;;;;;;;;44.00;30.25;22.60;44.10;;;;;;111689;1237;50441;-61
2023/05/13 05:56:43;;;;;;;;;34.75;28.75;22.60;44.10;;;;;;111665;1240;49697;-61
2023/05/13 05:59:10;;;;;;;;;34.75;26.00;22.60;44.00;;;;;;111680;1242;45205;-61
2023/05/13 06:01:37;;;;;;;;;29.00;24.50;22.60;43.90;;;;;;111718;1236;55147;-62
2023/05/13 06:04:05;;;;;;;;;26.50;20.50;22.60;43.90;;;;;;111709;1238;54004;-61
2023/05/13 06:06:32;;;;;;;;;34.25;29.00;22.60;43.90;;;;;;111701;1236;50173;-63
2023/05/13 06:09:00;;;;;;;;;28.75;22.50;22.60;43.90;;;;;;111725;1235;49594;-61
2023/05/13 06:11:27;;;;;;;;;35.50;25.25;22.60;43.80;;;;;;111682;1236;45815;-62
2023/05/13 06:13:55;;;;;;;;;27.75;24.75;22.60;43.80;;;;;;111667;1238;55270;-63
2023/05/13 06:16:23;;;;;;;;;27.50;22.00;22.70;43.80;;;;;;111728;1235;54176;-62
2023/05/13 06:18:49;;;;;;;;;33.33;25.00;22.60;43.70;;;;;;111696;1235;49125;-62
2023/05/13 06:21:17;;;;;;;;;36.75;26.50;22.70;43.90;;;;;;111658;1237;49797;-62
2023/05/13 06:23:43;;;;;;;;;26.00;20.75;22.70;43.60;;;;;;111639;1235;46181;-60
2023/05/13 06:26:10;;;;;;;;;30.25;27.00;22.70;43.60;;;;;;111647;1235;56926;-62
2023/05/13 06:28:37;;;;;;;;;30.50;23.00;22.70;43.60;;;;;;111702;1240;53663;-62
2023/05/13 06:31:04;;;;;;;;;31.00;23.00;22.70;43.80;;;;;;111701;1235;49728;-63
2023/05/13 06:33:31;;;;;;;;;32.25;22.75;22.70;43.80;;;;;;111679;1235;49492;-62
2023/05/13 06:35:58;;;;;;;;;28.67;21.00;22.70;43.50;;;;;;111711;1235;45843;-61
2023/05/13 06:38:25;;;;;;;;;31.00;25.75;22.70;43.50;;;;;;111681;1240;55330;-61
2023/05/13 06:40:52;;;;;;;;;30.75;23.00;22.70;43.50;;;;;;111642;1237;53358;-61
2023/05/13 06:43:19;;;;;;;;;24.67;21.67;22.70;43.40;;;;;;111675;1241;49675;-62
2023/05/13 06:45:47;;;;;;;;;26.00;22.25;22.70;43.60;;;;;;111626;1241;50069;-61
2023/05/13 06:48:14;;;;;;;;;32.67;19.00;22.70;43.40;;;;;;111535;1240;45493;-61
2023/05/13 06:50:41;;;;;;;;;23.67;20.67;22.70;43.40;;;;;;111672;1235;55289;-61
2023/05/13 06:53:10;;;;;;;;;29.33;24.00;22.70;43.30;;;;;;111673;1240;53859;-60
2023/05/13 06:55:40;;;;;;;;;24.75;21.25;22.70;43.50;;;;;;111701;1235;49090;-64
2023/05/13 06:58:07;;;;;;;;;28.67;21.00;22.70;43.40;;;;;;111650;1239;50016;-61
2023/05/13 07:00:39;;;;;;;;;28.75;21.25;22.70;43.30;;;;;;111704;1240;45978;-60
2023/05/13 07:03:06;;;;;;;;;27.67;23.00;22.70;43.20;;;;;;111661;1237;55534;-61
2023/05/13 07:05:34;;;;;;;;;24.75;21.25;22.70;43.20;;;;;;111714;1236;53345;-62
2023/05/13 07:08:05;;;;;;;;;28.75;23.00;22.70;43.40;;;;;;111663;1235;49819;-61
2023/05/13 07:10:33;;;;;;;;;30.00;22.00;22.70;43.20;;;;;;111634;1235;49224;-61
2023/05/13 07:13:01;;;;;;;;;27.75;23.00;22.70;43.20;;;;;;111660;1235;46509;-62
2023/05/13 07:15:28;;;;;;;;;25.50;21.25;22.70;43.10;;;;;;111652;1235;55669;-62
2023/05/13 07:17:55;;;;;;;;;25.75;20.00;22.70;43.40;;;;;;111645;1239;54060;-62
2023/05/13 07:20:22;;;;;;;;;29.00;22.00;22.70;43.20;;;;;;111621;1235;49976;-62
2023/05/13 07:22:49;;;;;;;;;29.00;21.67;22.70;43.10;;;;;;111676;1235;49503;-62
2023/05/13 07:25:17;;;;;;;;;33.00;24.00;22.70;43.30;;;;;;111690;1239;45665;-63
2023/05/13 07:27:44;;;;;;;;;22.00;20.25;22.70;43.10;;;;;;111714;1236;56183;-61
2023/05/13 07:30:12;;;;;;;;;30.75;20.25;22.70;43.10;;;;;;111629;1240;54065;-61
2023/05/13 07:32:39;;;;;;;;;27.25;21.00;22.70;43.10;;;;;;111649;1240;50169;-61
2023/05/13 07:35:08;;;;;;;;;28.00;19.00;22.70;43.10;;;;;;111688;1235;48977;-61
2023/05/13 07:37:35;;;;;;;;;25.75;19.75;22.70;43.10;;;;;;111672;1235;45915;-62
2023/05/13 07:40:06;;;;;;;;;29.75;20.00;22.70;43.30;;;;;;111663;1237;56149;-61
2023/05/13 07:42:34;;;;;;;;;26.25;23.00;22.70;43.10;;;;;;111692;1240;54141;-62
2023/05/13 07:45:01;;;;;;;;;23.50;20.75;22.70;43.30;;;;;;111666;1235;49628;-62
2023/05/13 07:47:30;;;;;;;;;22.75;19.50;22.70;43.40;;;;;;111733;1235;50221;-61
2023/05/13 07:49:57;;;;;;;;;26.50;20.00;22.70;43.10;;;;;;111541;1241;45466;-62
2023/05/13 07:52:24;;;;;;;;;24.00;20.67;22.70;43.10;;;;;;111694;1235;55185;-61
2023/05/13 07:54:51;;;;;;;;;20.50;18.75;22.70;43.30;;;;;;111657;1239;54425;-62
2023/05/13 07:57:18;;;;;;;;;23.75;19.00;22.70;43.10;;;;;;111656;1237;48966;-62
2023/05/13 07:59:44;;;;;;;;;22.00;19.75;22.70;43.30;;;;;;111683;1240;49920;-60
2023/05/13 08:02:11;;;;;;;;;22.00;18.67;22.70;43.10;;;;;;111698;1238;45941;-62
2023/05/13 08:04:39;;;;;;;;;29.50;19.75;22.70;43.10;;;;;;111684;1235;55779;-63
2023/05/13 08:07:06;;;;;;;;;24.00;21.00;22.70;43.10;;;;;;111700;1235;54425;-62
2023/05/13 08:09:32;;;;;;;;;21.33;18.33;22.70;43.10;;;;;;111683;1235;49437;-61
2023/05/13 08:11:59;;;;;;;;;27.00;21.00;22.70;43.10;;;;;;111653;1235;49598;-62
2023/05/13 08:14:26;;;;;;;;;21.75;18.00;22.70;43.10;;;;;;111724;1240;46743;-62
2023/05/13 08:16:53;;;;;;;;;23.00;21.00;22.70;43.10;;;;;;111679;1241;55117;-61
2023/05/13 08:19:20;;;;;;;;;23.00;20.75;22.70;43.00;;;;;;111718;1235;53292;-61
2023/05/13 08:21:47;;;;;;;;;18.00;16.00;22.70;43.00;;;;;;111709;1235;50085;-61
2023/05/13 08:24:14;;;;;;;;;19.25;17.75;22.70;43.00;;;;;;111710;1239;49407;-62
2023/05/13 08:26:41;;;;;;;;;25.50;18.50;22.70;43.00;;;;;;111680;1237;45893;-61
2023/05/13 08:29:11;;;;;;;;;22.67;19.33;22.70;43.00;;;;;;111696;1241;55303;-62
2023/05/13 08:31:38;;;;;;;;;27.00;20.00;22.70;43.00;;;;;;111688;1235;53897;-61
2023/05/13 08:34:05;;;;;;;;;21.75;19.00;22.70;43.00;;;;;;111479;1238;49670;-62
2023/05/13 08:36:32;;;;;;;;;26.75;19.25;22.70;43.00;;;;;;111669;1237;49227;-61
2023/05/13 08:39:00;;;;;;;;;23.25;20.00;22.70;43.00;;;;;;111692;1235;45687;-62
2023/05/13 08:41:29;;;;;;;;;25.00;18.50;22.70;43.00;;;;;;111688;1239;56040;-62
2023/05/13 08:43:58;;;;;;;;;23.00;19.00;22.70;43.00;;;;;;111736;1235;53716;-62
2023/05/13 08:46:27;;;;;;;;;23.75;18.75;22.70;43.00;;;;;;111670;1240;49688;-62
2023/05/13 08:48:55;;;;;;;;;23.00;18.25;22.70;43.00;;;;;;111676;1240;49243;-62
2023/05/13 08:51:24;;;;;;;;;19.75;16.00;22.70;42.80;;;;;;111652;1237;46129;-62
2023/05/13 08:53:52;;;;;;;;;21.25;18.75;22.70;42.90;;;;;;111649;1237;55350;-62
2023/05/13 08:56:21;;;;;;;;;17.25;16.25;22.70;43.20;;;;;;111698;1235;53781;-61
2023/05/13 08:58:47;;;;;;;;;19.25;17.25;22.70;42.90;;;;;;111639;1238;49978;-61
2023/05/13 09:01:15;;;;;;;;;21.33;20.00;22.80;43.00;;;;;;111127;1235;49487;-62
2023/05/13 09:03:54;;;;;;;;;24.00;18.25;22.70;42.90;;;;;;111532;1239;46943;-62
2023/05/13 09:06:22;;;;;;;;;16.75;14.50;22.70;43.00;;;;;;111647;1236;56118;-63
2023/05/13 09:08:49;;;;;;;;;17.25;16.25;22.80;43.00;;;;;;111660;1235;54028;-61
2023/05/13 09:11:16;;;;;;;;;18.50;17.00;22.80;42.50;;;;;;111674;1240;50243;-62
2023/05/13 09:13:43;;;;;;;;;19.00;16.50;22.80;43.50;;;;;;111637;1235;49479;-62
2023/05/13 09:16:12;;;;;;;;;20.50;17.00;22.70;43.10;;;;;;111678;1235;45299;-64
2023/05/13 09:18:40;;;;;;;;;23.00;20.00;22.70;42.90;;;;;;111681;1240;55670;-61
2023/05/13 09:21:36;;;;;;;;;20.00;17.00;22.80;43.20;;;;;;111690;1240;55429;-63
2023/05/13 09:24:17;;;;;;;;;19.50;17.25;22.70;42.90;;;;;;111629;1239;49190;-63
2023/05/13 09:26:45;;;;;;;;;22.00;19.00;22.80;43.00;;;;;;111695;1235;49478;-62
2023/05/13 09:29:16;;;;;;;;;20.00;16.00;22.80;42.90;;;;;;111690;1236;45733;-62
2023/05/13 09:31:49;;;;;;;;;22.25;19.00;22.80;42.90;;;;;;111584;1241;55981;-62
2023/05/13 09:34:33;;;;;;;;;20.50;18.00;22.80;42.90;;;;;;111578;1237;53775;-60
2023/05/13 09:37:05;;;;;;;;;19.00;18.00;22.80;43.10;;;;;;111626;1240;49223;-61
2023/05/13 09:39:37;;;;;;;;;22.67;18.00;22.80;43.10;;;;;;111599;1240;48897;-62
2023/05/13 09:42:04;;;;;;;;;25.75;18.75;22.80;42.90;;;;;;111701;1235;45922;-61
2023/05/13 09:44:32;;;;;;;;;21.50;20.50;22.80;43.10;;;;;;111733;1238;55912;-62
2023/05/13 09:47:01;;;;;;;;;24.00;19.00;22.80;43.10;;;;;;111670;1239;54163;-62
2023/05/13 09:49:28;;;;;;;;;20.50;16.00;22.80;42.90;;;;;;111721;1241;50016;-61
2023/05/13 09:51:55;;;;;;;;;20.50;17.50;22.80;42.90;;;;;;111688;1235;49777;-61
2023/05/13 09:54:21;;;;;;;;;22.00;19.25;22.80;42.90;;;;;;111696;1237;45683;-62
2023/05/13 09:56:48;;;;;;;;;18.00;16.00;22.80;42.90;;;;;;111647;1239;55357;-62
2023/05/13 09:59:15;;;;;;;;;19.75;15.50;22.80;42.90;;;;;;111719;1237;53941;-61
2023/05/13 10:01:44;;;;;;;;;18.50;17.50;22.80;42.90;;;;;;111677;1240;49194;-62
2023/05/13 10:04:11;;;;;;;;;19.25;16.50;22.80;42.90;;;;;;111632;1241;49924;-61
2023/05/13 10:06:38;;;;;;;;;22.00;16.67;22.80;42.90;;;;;;111669;1241;45935;-62
2023/05/13 10:09:08;;;;;;;;;20.25;17.50;22.80;42.90;;;;;;111630;1242;55507;-62
2023/05/13 10:11:35;;;;;;;;;19.75;16.00;22.80;42.90;;;;;;111570;1241;54831;-62
2023/05/13 10:14:04;;;;;;;;;21.00;19.75;22.80;42.90;;;;;;111583;1238;50291;-61
2023/05/13 10:16:31;;;;;;;;;16.75;15.50;22.80;43.00;;;;;;111683;1240;49255;-62
2023/05/13 10:18:59;;;;;;;;;19.00;17.67;22.70;42.90;;;;;;111635;1241;45639;-62
2023/05/13 10:21:26;;;;;;;;;20.00;16.75;22.80;43.10;;;;;;111606;1238;55649;-61
2023/05/13 10:23:55;;;;;;;;;18.67;18.00;22.80;43.20;;;;;;111654;1239;54153;-63
2023/05/13 10:26:23;;;;;;;;;22.50;18.00;22.70;42.90;;;;;;111685;1237;49429;-63
2023/05/13 10:28:50;;;;;;;;;16.33;15.00;22.80;43.20;;;;;;111692;1235;48889;-61
2023/05/13 10:31:17;;;;;;;;;17.75;15.50;22.80;43.00;;;;;;111681;1242;45913;-62
2023/05/13 10:33:44;;;;;;;;;18.25;16.75;22.80;43.00;;;;;;111667;1235;56121;-62
2023/05/13 10:36:34;;;;;;;;;20.00;15.00;22.80;43.00;;;;;;111695;1239;53531;-62
2023/05/13 10:39:23;;;;;;;;;19.33;17.00;22.80;43.00;;;;;;111675;1240;49489;-61
2023/05/13 10:41:56;;;;;;;;;20.00;16.00;22.80;43.00;;;;;;111605;1235;49498;-62
2023/05/13 10:44:23;;;;;;;;;19.67;17.00;22.80;42.90;;;;;;111672;1235;46533;-62
2023/05/13 10:46:50;;;;;;;;;18.33;15.67;22.80;42.90;;;;;;111642;1238;56309;-62
2023/05/13 10:49:17;;;;;;;;;21.25;18.75;22.80;42.90;;;;;;111513;1235;54433;-61
2023/05/13 10:51:48;;;;;;;;;17.75;16.75;22.80;42.90;;;;;;111628;1235;49003;-61
2023/05/13 10:54:20;;;;;;;;;22.00;17.25;22.80;43.10;;;;;;111680;1238;49486;-61
2023/05/13 10:56:56;;;;;;;;;16.00;15.00;22.80;43.00;;;;;;111650;1237;45783;-62
2023/05/13 10:59:24;;;;;;;;;19.50;18.00;22.80;43.10;;;;;;111665;1239;55864;-60
2023/05/13 11:01:51;;;;;;;;;19.00;15.00;22.80;42.90;;;;;;111623;1238;54714;-63
2023/05/13 11:04:20;;;;;;;;;17.75;15.50;22.80;42.90;;;;;;111683;1238;49270;-61
2023/05/13 11:06:49;;;;;;;;;19.50;15.75;22.80;42.90;;;;;;111658;1240;50024;-62
2023/05/13 11:09:19;;;;;;;;;15.25;14.25;22.80;43.00;;;;;;111557;1241;45226;-61
2023/05/13 11:11:47;;;;;;;;;17.50;14.75;22.80;42.90;;;;;;111599;1237;55807;-63
2023/05/13 11:14:16;;;;;;;;;21.00;18.00;22.80;42.90;;;;;;111723;1238;53476;-62
2023/05/13 11:16:58;;;;;;;;;23.00;20.33;22.80;43.00;;;;;;111686;1240;48982;-61
2023/05/13 11:19:34;;;;;;;;;17.67;15.00;22.80;42.90;;;;;;111664;1236;49900;-63
2023/05/13 11:22:09;;;;;;;;;18.00;16.50;22.80;42.90;;;;;;111715;1236;45662;-62
2023/05/13 11:24:36;;;;;;;;;18.75;17.00;22.80;42.90;;;;;;111630;1235;56322;-61
2023/05/13 11:27:14;;;;;;;;;18.25;13.50;22.80;42.90;;;;;;111678;1240;55224;-61
2023/05/13 11:29:52;;;;;;;;;18.00;16.00;22.80;42.90;;;;;;111675;1238;49476;-64
2023/05/13 11:33:11;;;;;;;;;16.00;14.00;22.80;42.80;;;;;;111661;1235;49947;-62
2023/05/13 11:35:38;;;;;;;;;19.33;18.00;22.90;42.90;;;;;;111508;1236;45648;-62
2023/05/13 11:38:05;;;;;;;;;23.50;19.25;22.90;43.00;;;;;;111669;1241;55920;-62
2023/05/13 11:40:34;;;;;;;;;21.00;17.00;22.90;42.80;;;;;;111791;1237;53965;-61
2023/05/13 11:43:03;;;;;;;;;16.67;14.33;22.90;42.80;;;;;;111658;1241;49337;-62
2023/05/13 11:45:31;;;;;;;;;16.50;15.00;22.90;43.00;;;;;;111516;1241;49614;-62
2023/05/13 11:48:21;;;;;;;;;18.33;16.67;22.90;42.90;;;;;;111571;1241;45437;-61
2023/05/13 11:50:51;;;;;;;;;19.00;14.75;22.90;42.80;;;;;;111561;1238;57138;-61
2023/05/13 11:53:21;;;;;;;;;17.00;16.00;22.90;42.80;;;;;;111516;1237;55000;-61
2023/05/13 11:55:48;;;;;;;;;15.75;14.00;22.90;42.80;;;;;;111722;1235;50416;-62
2023/05/13 11:58:15;;;;;;;;;17.00;15.50;22.90;42.90;;;;;;111677;1237;50494;-62
2023/05/13 12:00:42;;;;;;;;;17.25;14.75;22.90;42.80;;;;;;111697;1238;45849;-62
2023/05/13 12:03:11;;;;;;;;;21.00;16.75;22.90;42.80;;;;;;111678;1238;55558;-61
2023/05/13 12:05:39;;;;;;;;;15.33;14.00;22.90;42.90;;;;;;111667;1235;53441;-61
2023/05/13 12:08:08;;;;;;;;;19.50;17.75;22.90;43.00;;;;;;111516;1243;48886;-62
2023/05/13 12:10:42;;;;;;;;;16.00;15.00;22.90;43.00;;;;;;111681;1240;49843;-60
2023/05/13 12:13:09;;;;;;;;;17.50;16.50;22.90;42.90;;;;;;111560;1244;46366;-62
2023/05/13 12:15:37;;;;;;;;;17.00;16.00;22.90;42.80;;;;;;111469;1237;56367;-62
2023/05/13 12:18:04;;;;;;;;;22.00;15.50;22.90;42.80;;;;;;111527;1241;53600;-62
2023/05/13 12:20:32;;;;;;;;;17.25;15.00;22.90;42.70;;;;;;111679;1235;49108;-62
2023/05/13 12:23:00;;;;;;;;;16.25;15.25;22.90;42.80;;;;;;111700;1237;49426;-62
2023/05/13 12:25:39;;;;;;;;;16.75;14.75;22.80;42.80;;;;;;111431;1237;46942;-63